Time;durP1;ratioP1;P1;durP2;ratioP2;P2;SDS_P1;SDS_P2;PMS_P1;PMS_P2;Temp;Humidity;BMP_temperature;BMP_pressure;BME280_temperature;BME280_humidity;BME280_pressure;Samples;Min_cycle;Max_cycle;Signal;HPM_P1;HPM_P2
2023/08/18 00:01:50;;;;;;;7.70;2.70;;;18.30;99.90;;;;;;5085227;28;20571;-81
2023/08/18 00:04:18;;;;;;;7.30;2.50;;;18.30;99.90;;;;;;5080466;28;20468;-80
2023/08/18 00:06:45;;;;;;;6.83;3.20;;;18.30;99.90;;;;;;5089210;28;20464;-79
2023/08/18 00:09:12;;;;;;;4.90;2.33;;;18.30;99.90;;;;;;5088120;28;20907;-81
2023/08/18 00:11:40;;;;;;;2.67;2.00;;;18.20;99.90;;;;;;5076939;28;20495;-80
2023/08/18 00:14:08;;;;;;;6.03;3.60;;;18.20;99.90;;;;;;5081959;28;20943;-79
2023/08/18 00:16:35;;;;;;;2.97;2.60;;;18.20;99.90;;;;;;5079405;28;20522;-80
2023/08/18 00:19:04;;;;;;;3.53;2.60;;;18.20;99.90;;;;;;5087064;28;20983;-80
2023/08/18 00:21:31;;;;;;;4.47;3.20;;;18.20;99.90;;;;;;5072390;28;20427;-82
2023/08/18 00:23:58;;;;;;;5.63;3.10;;;18.30;99.90;;;;;;5074695;28;20520;-82
2023/08/18 00:26:25;;;;;;;2.70;2.40;;;18.20;99.90;;;;;;5076664;28;20519;-81
2023/08/18 00:28:52;;;;;;;4.67;2.20;;;18.20;99.90;;;;;;5086340;28;20531;-82
2023/08/18 00:31:19;;;;;;;2.53;2.23;;;18.30;99.90;;;;;;5086340;28;20555;-82
2023/08/18 00:33:46;;;;;;;5.57;2.90;;;18.30;99.90;;;;;;5082064;28;20459;-81
2023/08/18 00:36:14;;;;;;;4.07;2.80;;;18.30;99.90;;;;;;5090415;28;20440;-83
2023/08/18 00:38:41;;;;;;;5.30;3.20;;;18.30;99.90;;;;;;5074904;28;20438;-79
2023/08/18 00:41:08;;;;;;;2.67;2.47;;;18.30;99.90;;;;;;5080361;28;20465;-80
2023/08/18 00:43:34;;;;;;;2.53;2.33;;;18.30;99.90;;;;;;5082208;28;20547;-76
2023/08/18 00:46:01;;;;;;;5.30;2.60;;;18.20;99.90;;;;;;5078529;28;20921;-80
2023/08/18 00:48:29;;;;;;;4.10;2.40;;;18.30;99.90;;;;;;5086936;28;20513;-80
2023/08/18 00:50:58;;;;;;;4.27;2.37;;;18.20;99.90;;;;;;5088550;28;20548;-79
2023/08/18 00:53:27;;;;;;;2.77;2.30;;;18.20;99.90;;;;;;5091516;28;20512;-79
2023/08/18 00:55:53;;;;;;;3.13;2.80;;;18.30;99.90;;;;;;5089426;28;20512;-80
2023/08/18 00:58:20;;;;;;;2.67;2.43;;;18.30;99.90;;;;;;5093063;28;20460;-79
2023/08/18 01:00:50;;;;;;;5.23;3.57;;;18.30;99.90;;;;;;5084218;28;20529;-79
2023/08/18 01:03:17;;;;;;;7.60;3.20;;;18.20;99.90;;;;;;5074154;28;20480;-81
2023/08/18 01:05:44;;;;;;;3.27;2.57;;;18.20;99.90;;;;;;5081266;28;20524;-80
2023/08/18 01:08:11;;;;;;;3.00;2.43;;;18.20;99.90;;;;;;5086047;28;20473;-78
2023/08/18 01:10:49;;;;;;;3.43;2.50;;;18.20;99.90;;;;;;5090627;28;20865;-77
2023/08/18 01:13:26;;;;;;;5.43;2.83;;;18.20;99.90;;;;;;5087124;28;20535;-81
2023/08/18 01:15:57;;;;;;;3.33;3.03;;;18.20;99.90;;;;;;5079363;28;20878;-79
2023/08/18 01:18:25;;;;;;;3.43;2.83;;;18.30;99.90;;;;;;5090402;28;20440;-81
2023/08/18 01:20:54;;;;;;;6.27;2.80;;;18.30;99.90;;;;;;5092200;28;20441;-81
2023/08/18 01:23:22;;;;;;;6.50;3.30;;;18.30;99.90;;;;;;5079622;28;20579;-80
2023/08/18 01:25:50;;;;;;;5.00;3.10;;;18.30;99.90;;;;;;5079760;28;20477;-78
2023/08/18 01:28:17;;;;;;;4.97;3.07;;;18.20;99.90;;;;;;5081883;28;20536;-81
2023/08/18 01:30:49;;;;;;;3.90;2.53;;;18.20;99.90;;;;;;5073344;28;20437;-79
2023/08/18 01:33:22;;;;;;;3.03;2.77;;;18.20;99.90;;;;;;5070944;28;20576;-82
2023/08/18 01:36:04;;;;;;;6.17;3.03;;;18.20;99.90;;;;;;5068376;28;20456;-84
2023/08/18 01:38:33;;;;;;;4.43;2.70;;;18.20;99.90;;;;;;5067235;28;20931;-80
2023/08/18 01:41:01;;;;;;;4.53;2.60;;;18.20;99.90;;;;;;5088319;28;20953;-81
2023/08/18 01:43:30;;;;;;;4.03;2.10;;;18.20;99.90;;;;;;5081433;28;20943;-82
2023/08/18 01:45:57;;;;;;;4.00;3.10;;;18.20;99.90;;;;;;5090349;28;20455;-81
2023/08/18 01:48:23;;;;;;;4.83;3.30;;;18.20;99.90;;;;;;5082447;28;20806;-80
2023/08/18 01:50:50;;;;;;;4.33;3.10;;;18.20;99.90;;;;;;5077129;28;20560;-81
2023/08/18 01:53:17;;;;;;;4.10;3.00;;;18.30;99.90;;;;;;5083064;28;20532;-79
2023/08/18 01:55:46;;;;;;;4.60;3.77;;;18.20;99.90;;;;;;5078799;28;20537;-81
2023/08/18 01:58:13;;;;;;;5.10;3.57;;;18.20;99.90;;;;;;5072593;28;20947;-80
2023/08/18 02:00:41;;;;;;;6.77;3.10;;;18.20;99.90;;;;;;5075969;28;20437;-82
2023/08/18 02:03:09;;;;;;;6.13;3.47;;;18.20;99.90;;;;;;5076886;28;21063;-82
2023/08/18 02:05:39;;;;;;;5.60;3.43;;;18.20;99.90;;;;;;5071543;28;20429;-82
2023/08/18 02:08:08;;;;;;;3.83;2.87;;;18.20;99.90;;;;;;5083871;28;20519;-83
2023/08/18 02:10:35;;;;;;;8.50;3.40;;;18.20;99.90;;;;;;5071390;28;20525;-81
2023/08/18 02:13:05;;;;;;;4.50;2.80;;;18.10;99.90;;;;;;5072291;28;20429;-82
2023/08/18 02:15:32;;;;;;;4.07;2.90;;;18.20;99.90;;;;;;5082765;28;20444;-80
2023/08/18 02:17:59;;;;;;;3.77;2.90;;;18.10;99.90;;;;;;5074168;28;21008;-83
2023/08/18 02:20:26;;;;;;;4.00;2.70;;;18.10;99.90;;;;;;5073382;28;20512;-81
2023/08/18 02:23:12;;;;;;;6.70;4.37;;;18.10;99.90;;;;;;5070781;28;20886;-81
2023/08/18 02:25:39;;;;;;;3.90;3.20;;;18.10;99.90;;;;;;5066805;28;20835;-81
2023/08/18 02:28:07;;;;;;;3.20;2.90;;;18.00;99.90;;;;;;5075804;28;20444;-80
2023/08/18 02:30:34;;;;;;;3.10;2.90;;;17.90;99.90;;;;;;5085658;28;20519;-82
2023/08/18 02:33:01;;;;;;;3.80;3.37;;;17.90;99.90;;;;;;5077803;28;20854;-80
2023/08/18 02:35:28;;;;;;;4.00;3.00;;;17.80;99.90;;;;;;5083612;28;20463;-80
2023/08/18 02:37:55;;;;;;;4.50;3.50;;;17.80;99.90;;;;;;5081531;28;20487;-83
2023/08/18 02:40:22;;;;;;;3.80;3.23;;;17.70;99.90;;;;;;5080935;28;20442;-81
2023/08/18 02:42:49;;;;;;;4.90;3.03;;;17.60;99.90;;;;;;5086433;28;20475;-81
2023/08/18 02:45:17;;;;;;;3.03;2.60;;;17.60;99.90;;;;;;5077641;28;20526;-82
2023/08/18 02:47:45;;;;;;;5.73;3.50;;;17.60;99.90;;;;;;5071880;28;20444;-81
2023/08/18 02:50:12;;;;;;;3.63;3.33;;;17.50;99.90;;;;;;5081548;28;20596;-82
2023/08/18 02:52:39;;;;;;;3.33;2.90;;;17.50;99.90;;;;;;5074820;28;20444;-82
2023/08/18 02:55:07;;;;;;;4.40;3.47;;;17.50;99.90;;;;;;5083133;28;20551;-81
2023/08/18 02:57:34;;;;;;;4.60;3.63;;;17.40;99.90;;;;;;5076242;28;20441;-81
2023/08/18 03:00:01;;;;;;;4.90;3.27;;;17.40;99.90;;;;;;5083566;28;20527;-81
2023/08/18 03:02:29;;;;;;;5.00;3.20;;;17.40;99.90;;;;;;5077965;28;20509;-81
2023/08/18 03:04:56;;;;;;;4.07;3.77;;;17.40;99.90;;;;;;5078642;28;20490;-82
2023/08/18 03:07:23;;;;;;;4.70;3.70;;;17.30;99.90;;;;;;5086986;28;20542;-82
2023/08/18 03:09:51;;;;;;;6.53;3.00;;;17.30;99.90;;;;;;5083467;28;20483;-81
2023/08/18 03:12:18;;;;;;;11.10;4.63;;;17.30;99.90;;;;;;5091069;28;20516;-79
2023/08/18 03:14:45;;;;;;;5.67;3.70;;;17.20;99.90;;;;;;5071669;28;20528;-81
2023/08/18 03:17:12;;;;;;;4.77;4.37;;;17.10;99.90;;;;;;5085017;28;20468;-81
2023/08/18 03:19:40;;;;;;;4.83;3.80;;;17.10;99.90;;;;;;5090748;28;20477;-81
2023/08/18 03:22:07;;;;;;;4.57;3.73;;;17.10;99.90;;;;;;5091913;28;20449;-80
2023/08/18 03:24:34;;;;;;;3.73;3.43;;;17.10;99.90;;;;;;5076400;28;20544;-78
2023/08/18 03:27:01;;;;;;;3.70;3.10;;;17.10;99.90;;;;;;5080848;28;20441;-81
2023/08/18 03:29:35;;;;;;;7.23;3.90;;;17.00;99.90;;;;;;5085281;28;20811;-79
2023/08/18 03:32:02;;;;;;;4.87;4.07;;;17.00;99.90;;;;;;5083736;28;20539;-79
2023/08/18 03:34:29;;;;;;;5.00;4.50;;;17.00;99.90;;;;;;5089056;28;20559;-81
2023/08/18 03:36:58;;;;;;;7.00;3.63;;;17.00;99.90;;;;;;5082265;28;20532;-80
2023/08/18 03:39:25;;;;;;;8.27;5.00;;;16.90;99.90;;;;;;5080036;28;20534;-79
2023/08/18 03:41:52;;;;;;;9.20;4.80;;;16.90;99.90;;;;;;5084400;28;20440;-83
2023/08/18 03:44:19;;;;;;;4.70;4.20;;;16.90;99.90;;;;;;5082706;28;20573;-81
2023/08/18 03:46:46;;;;;;;4.47;4.07;;;16.80;99.90;;;;;;5087399;28;20299;-81
2023/08/18 03:49:12;;;;;;;5.40;4.87;;;16.80;99.90;;;;;;5084485;28;20469;-81
2023/08/18 03:51:39;;;;;;;7.40;5.07;;;16.80;99.90;;;;;;5083978;28;20545;-82
2023/08/18 03:54:08;;;;;;;4.63;3.90;;;16.80;99.90;;;;;;5084370;28;20461;-81
2023/08/18 03:56:34;;;;;;;6.83;5.47;;;16.90;99.90;;;;;;5083491;28;20864;-80
2023/08/18 03:59:01;;;;;;;9.90;5.40;;;16.90;99.90;;;;;;5079786;28;20454;-81
2023/08/18 04:01:28;;;;;;;6.22;5.70;;;17.00;99.90;;;;;;5084378;28;20444;-82
2023/08/18 04:03:59;;;;;;;4.93;4.43;;;17.10;99.90;;;;;;5081864;28;20639;-80
2023/08/18 04:06:26;;;;;;;5.20;4.70;;;17.10;99.90;;;;;;5092715;28;20436;-80
2023/08/18 04:09:06;;;;;;;9.63;5.23;;;17.20;99.90;;;;;;5088276;28;20537;-79
2023/08/18 04:11:34;;;;;;;6.20;4.87;;;17.20;99.90;;;;;;5079234;28;20444;-81
2023/08/18 04:14:02;;;;;;;5.00;3.80;;;17.20;99.90;;;;;;5087985;28;20952;-81
2023/08/18 04:16:31;;;;;;;5.50;4.47;;;17.20;99.90;;;;;;5079205;28;20532;-80
2023/08/18 04:18:58;;;;;;;5.10;4.53;;;17.30;99.90;;;;;;5083542;28;20922;-79
2023/08/18 04:21:25;;;;;;;6.70;4.53;;;17.30;99.90;;;;;;5090751;28;20522;-80
2023/08/18 04:24:05;;;;;;;13.53;4.93;;;17.30;99.90;;;;;;5084109;28;20507;-81
2023/08/18 04:26:35;;;;;;;6.03;4.70;;;17.30;99.90;;;;;;5081113;28;20530;-81
2023/08/18 04:29:04;;;;;;;7.13;4.90;;;17.30;99.90;;;;;;5086433;28;20446;-81
2023/08/18 04:31:31;;;;;;;6.30;4.67;;;17.30;99.90;;;;;;5079021;28;20471;-80
2023/08/18 04:33:57;;;;;;;5.45;4.72;;;17.20;99.90;;;;;;5085900;28;20450;-81
2023/08/18 04:36:24;;;;;;;5.60;3.95;;;17.20;99.90;;;;;;5079762;28;20229;-79
2023/08/18 04:38:51;;;;;;;10.10;6.83;;;17.20;99.90;;;;;;5080590;28;20216;-80
2023/08/18 04:41:18;;;;;;;5.13;4.27;;;17.20;99.90;;;;;;5078733;28;20471;-80
2023/08/18 04:43:48;;;;;;;5.07;4.63;;;17.20;99.90;;;;;;5077608;28;20476;-79
2023/08/18 04:46:15;;;;;;;4.47;4.03;;;17.20;99.90;;;;;;5089072;28;20478;-81
2023/08/18 04:48:42;;;;;;;8.30;4.83;;;17.30;99.90;;;;;;5072034;28;20536;-81
2023/08/18 04:51:10;;;;;;;6.60;5.03;;;17.30;99.90;;;;;;5081720;28;20520;-81
2023/08/18 04:53:37;;;;;;;8.13;4.57;;;17.30;99.90;;;;;;5082042;28;20545;-81
2023/08/18 04:56:05;;;;;;;6.43;4.40;;;17.40;99.90;;;;;;5082561;28;20450;-79
2023/08/18 04:58:31;;;;;;;6.63;4.50;;;17.50;99.90;;;;;;5080570;28;20493;-79
2023/08/18 05:01:01;;;;;;;5.27;4.77;;;17.60;99.90;;;;;;5076225;28;20467;-80
2023/08/18 05:03:28;;;;;;;5.80;4.50;;;17.70;99.90;;;;;;5078146;28;20480;-80
2023/08/18 05:06:00;;;;;;;5.60;3.70;;;17.80;99.90;;;;;;5080721;28;21007;-79
2023/08/18 05:08:27;;;;;;;6.87;5.20;;;17.80;99.90;;;;;;5051936;28;20444;-77
2023/08/18 05:10:56;;;;;;;5.17;4.10;;;17.90;99.90;;;;;;5079128;28;20434;-76
2023/08/18 05:13:23;;;;;;;5.13;4.13;;;17.90;99.90;;;;;;5084328;28;21017;-78
2023/08/18 05:15:50;;;;;;;4.13;3.47;;;17.90;99.90;;;;;;5074614;28;20441;-78
2023/08/18 05:18:18;;;;;;;6.13;3.87;;;18.10;99.90;;;;;;5080235;28;20917;-77
2023/08/18 05:20:45;;;;;;;4.40;4.00;;;18.10;99.90;;;;;;5078932;28;20498;-77
2023/08/18 05:23:12;;;;;;;4.50;4.10;;;18.20;99.90;;;;;;5084958;28;20488;-77
2023/08/18 05:25:39;;;;;;;4.63;3.33;;;18.30;99.90;;;;;;5080696;28;20807;-77
2023/08/18 05:28:06;;;;;;;7.60;2.90;;;18.40;99.90;;;;;;5072271;28;20448;-77
2023/08/18 05:30:33;;;;;;;6.50;4.40;;;18.50;99.90;;;;;;5083630;28;20468;-76
2023/08/18 05:33:00;;;;;;;4.80;3.73;;;18.60;99.90;;;;;;5078550;28;20802;-77
2023/08/18 05:35:29;;;;;;;6.80;3.07;;;18.70;99.90;;;;;;5069408;28;20456;-78
2023/08/18 05:37:56;;;;;;;3.97;3.17;;;18.80;99.90;;;;;;5071058;28;20433;-78
2023/08/18 05:40:22;;;;;;;9.73;3.40;;;19.00;99.90;;;;;;5073782;28;20450;-78
2023/08/18 05:42:50;;;;;;;3.37;2.53;;;19.10;99.90;;;;;;5081051;28;20988;-78
2023/08/18 05:45:17;;;;;;;3.00;2.27;;;19.20;99.90;;;;;;5079212;28;20471;-77
2023/08/18 05:47:44;;;;;;;2.73;2.40;;;19.20;99.90;;;;;;5078594;28;20437;-77
2023/08/18 05:50:12;;;;;;;5.60;3.37;;;19.20;99.90;;;;;;5077509;28;20520;-76
2023/08/18 05:52:40;;;;;;;7.50;3.80;;;19.10;99.90;;;;;;5067259;28;20942;-78
2023/08/18 05:55:08;;;;;;;5.53;3.00;;;19.20;99.90;;;;;;5081866;28;20495;-78
2023/08/18 05:57:41;;;;;;;11.57;2.70;;;19.20;99.90;;;;;;5071494;28;20441;-78
2023/08/18 06:00:10;;;;;;;4.13;2.47;;;19.20;99.90;;;;;;5076418;28;20809;-78
2023/08/18 06:02:38;;;;;;;3.53;2.70;;;19.10;99.90;;;;;;5075949;28;20450;-78
2023/08/18 06:05:06;;;;;;;3.73;2.57;;;19.10;99.90;;;;;;5073291;28;20510;-79
2023/08/18 06:07:33;;;;;;;5.03;3.03;;;19.10;99.90;;;;;;5083008;28;20479;-77
2023/08/18 06:10:02;;;;;;;3.60;2.10;;;19.20;99.90;;;;;;5072660;28;20440;-79
2023/08/18 06:12:28;;;;;;;4.33;2.87;;;19.30;99.90;;;;;;5086507;28;20531;-79
2023/08/18 06:14:55;;;;;;;5.90;3.50;;;19.50;99.90;;;;;;5077439;28;20881;-78
2023/08/18 06:17:22;;;;;;;6.00;2.43;;;19.50;99.90;;;;;;5074812;28;20444;-79
2023/08/18 06:19:49;;;;;;;4.13;2.33;;;19.60;99.90;;;;;;5071552;28;20624;-79
2023/08/18 06:22:16;;;;;;;4.00;2.70;;;19.70;99.90;;;;;;5070415;28;20523;-77
2023/08/18 06:24:43;;;;;;;6.10;2.93;;;19.80;99.90;;;;;;5076297;28;20477;-77
2023/08/18 06:27:11;;;;;;;4.73;2.37;;;19.80;99.90;;;;;;5078922;28;20442;-80
2023/08/18 06:29:39;;;;;;;3.20;2.60;;;19.90;99.90;;;;;;5078723;28;20438;-81
2023/08/18 06:32:06;;;;;;;4.60;2.67;;;20.10;99.90;;;;;;5082054;28;20512;-76
2023/08/18 06:34:36;;;;;;;4.23;2.70;;;20.20;99.90;;;;;;5078219;28;20530;-78
2023/08/18 06:37:03;;;;;;;8.10;2.70;;;20.30;99.90;;;;;;5081578;28;20440;-79
2023/08/18 06:39:30;;;;;;;3.10;2.43;;;20.30;99.90;;;;;;5081466;28;20481;-80
2023/08/18 06:41:58;;;;;;;4.50;3.10;;;20.40;99.90;;;;;;5081037;28;20433;-80
2023/08/18 06:44:27;;;;;;;5.63;2.33;;;20.50;99.90;;;;;;5078766;28;20486;-80
2023/08/18 06:46:54;;;;;;;4.63;2.70;;;20.50;99.90;;;;;;5071276;28;20440;-79
2023/08/18 06:49:21;;;;;;;4.30;2.60;;;20.60;99.90;;;;;;5074083;28;20531;-77
2023/08/18 06:51:49;;;;;;;2.43;2.23;;;20.50;99.90;;;;;;5082878;28;20550;-79
2023/08/18 06:54:17;;;;;;;3.17;1.97;;;20.60;99.90;;;;;;5077080;28;20554;-79
2023/08/18 06:56:44;;;;;;;2.87;2.57;;;20.60;99.90;;;;;;5081787;28;20601;-77
2023/08/18 06:59:14;;;;;;;3.60;2.33;;;20.60;99.90;;;;;;5075499;28;20472;-79
2023/08/18 07:01:45;;;;;;;4.03;2.00;;;20.50;99.90;;;;;;5076291;28;20447;-79
2023/08/18 07:04:12;;;;;;;5.10;2.30;;;20.40;99.90;;;;;;5073621;28;20524;-79
2023/08/18 07:06:44;;;;;;;4.50;2.80;;;20.40;99.90;;;;;;5069525;28;20956;-77
2023/08/18 07:09:11;;;;;;;6.93;2.90;;;20.40;99.90;;;;;;5089027;28;20494;-83
2023/08/18 07:11:42;;;;;;;3.10;2.80;;;20.40;99.90;;;;;;5089197;28;20502;-79
2023/08/18 07:14:09;;;;;;;5.73;2.97;;;20.50;99.90;;;;;;5082505;28;20498;-78
2023/08/18 07:16:37;;;;;;;3.30;2.27;;;20.60;99.90;;;;;;5074982;28;20443;-82
2023/08/18 07:19:05;;;;;;;7.80;6.70;;;20.70;99.90;;;;;;5083941;28;20501;-80
2023/08/18 07:21:32;;;;;;;9.63;5.50;;;20.80;99.90;;;;;;5093533;28;20440;-80
2023/08/18 07:23:59;;;;;;;5.87;3.40;;;20.80;99.90;;;;;;5088315;28;20499;-80
2023/08/18 07:26:26;;;;;;;4.20;3.40;;;20.90;99.90;;;;;;5083951;28;20513;-81
2023/08/18 07:28:57;;;;;;;4.20;3.80;;;21.30;99.90;;;;;;5069313;28;20468;-79
2023/08/18 07:31:27;;;;;;;4.27;2.90;;;21.60;99.90;;;;;;5075704;28;20439;-80
2023/08/18 07:33:55;;;;;;;3.63;2.33;;;21.90;99.90;;;;;;5079911;28;20495;-83
2023/08/18 07:36:23;;;;;;;4.60;2.80;;;22.40;99.90;;;;;;5066696;28;20453;-82
2023/08/18 07:38:50;;;;;;;3.87;2.50;;;23.10;99.90;;;;;;5078664;28;20448;-81
2023/08/18 07:41:18;;;;;;;4.10;2.33;;;23.50;99.90;;;;;;5081832;28;20430;-79
2023/08/18 07:43:45;;;;;;;5.20;1.83;;;24.10;99.90;;;;;;5080634;28;20540;-80
2023/08/18 07:46:12;;;;;;;4.00;1.63;;;25.50;99.90;;;;;;5078559;28;20484;-80
2023/08/18 07:48:39;;;;;;;3.60;2.30;;;27.00;99.90;;;;;;5084128;28;20441;-80
2023/08/18 07:51:06;;;;;;;6.47;1.93;;;28.20;99.90;;;;;;5082056;28;20441;-79
2023/08/18 07:53:35;;;;;;;3.93;2.27;;;29.00;99.40;;;;;;5084049;28;20476;-77
2023/08/18 07:56:02;;;;;;;3.47;2.50;;;30.10;96.50;;;;;;5075313;28;20430;-78
2023/08/18 07:58:29;;;;;;;5.37;2.40;;;31.30;92.80;;;;;;5070417;28;20909;-78
2023/08/18 08:00:56;;;;;;;2.83;1.70;;;31.60;91.60;;;;;;5070385;28;20437;-78
2023/08/18 08:03:24;;;;;;;4.97;2.77;;;31.80;90.20;;;;;;5080290;28;20475;-77
2023/08/18 08:05:51;;;;;;;3.80;2.40;;;31.50;90.30;;;;;;5088488;28;20562;-78
2023/08/18 08:08:21;;;;;;;3.70;2.13;;;31.30;90.50;;;;;;5069771;28;20453;-77
2023/08/18 08:10:50;;;;;;;4.27;2.23;;;31.60;90.50;;;;;;5072932;28;20513;-78
2023/08/18 08:13:18;;;;;;;3.13;2.20;;;32.40;89.40;;;;;;5083149;28;20464;-78
2023/08/18 08:15:45;;;;;;;6.10;2.47;;;32.70;87.40;;;;;;5085264;28;20444;-78
2023/08/18 08:18:13;;;;;;;4.30;2.20;;;33.20;86.30;;;;;;5077668;28;20771;-78
2023/08/18 08:20:41;;;;;;;4.40;2.60;;;33.70;84.50;;;;;;5070749;28;20494;-78
2023/08/18 08:23:15;;;;;;;4.20;2.40;;;34.00;82.80;;;;;;5069128;28;20470;-78
2023/08/18 08:25:45;;;;;;;4.40;2.80;;;34.10;83.40;;;;;;5074334;28;20471;-77
2023/08/18 08:28:13;;;;;;;4.00;2.60;;;34.50;81.30;;;;;;5083762;28;20444;-77
2023/08/18 08:30:44;;;;;;;2.90;2.37;;;34.10;81.80;;;;;;5081147;28;20517;-77
2023/08/18 08:33:11;;;;;;;5.60;2.80;;;33.80;82.00;;;;;;5080664;28;20889;-78
2023/08/18 08:35:38;;;;;;;3.60;2.70;;;33.50;82.70;;;;;;5086584;28;20469;-78
2023/08/18 08:38:06;;;;;;;2.77;2.47;;;33.30;82.80;;;;;;5099146;28;20432;-78
2023/08/18 08:40:48;;;;;;;4.60;2.93;;;33.10;83.70;;;;;;5086586;28;20473;-77
2023/08/18 08:43:16;;;;;;;4.60;3.10;;;33.80;83.10;;;;;;5091862;28;20516;-78
2023/08/18 08:45:45;;;;;;;5.17;2.50;;;33.80;82.40;;;;;;5077530;28;20540;-77
2023/08/18 08:48:13;;;;;;;3.97;3.00;;;33.90;82.70;;;;;;5080936;28;20442;-78
2023/08/18 08:50:44;;;;;;;3.00;2.70;;;34.10;81.60;;;;;;5075111;28;20442;-80
2023/08/18 08:53:14;;;;;;;4.00;2.63;;;34.70;81.70;;;;;;5073334;28;20965;-77
2023/08/18 08:55:47;;;;;;;3.33;3.03;;;35.30;80.60;;;;;;5086101;28;20442;-77
2023/08/18 08:58:16;;;;;;;4.67;2.50;;;35.50;78.20;;;;;;5080243;28;20532;-78
2023/08/18 09:00:46;;;;;;;5.77;2.80;;;35.50;78.10;;;;;;5081058;28;20467;-78
2023/08/18 09:03:14;;;;;;;3.30;2.80;;;35.50;78.50;;;;;;5071413;28;20478;-78
2023/08/18 09:05:41;;;;;;;3.80;2.70;;;35.10;79.10;;;;;;5089498;28;20494;-77
2023/08/18 09:08:11;;;;;;;4.00;2.50;;;34.70;79.50;;;;;;5090872;28;20517;-77
2023/08/18 09:10:40;;;;;;;4.33;2.80;;;34.00;81.10;;;;;;5086627;28;20524;-77
2023/08/18 09:13:07;;;;;;;3.30;3.00;;;33.90;81.00;;;;;;5089175;28;20484;-78
2023/08/18 09:15:35;;;;;;;3.50;2.93;;;33.80;82.70;;;;;;5077923;28;20433;-78
2023/08/18 09:18:08;;;;;;;5.80;3.10;;;34.00;81.90;;;;;;5076825;28;20834;-77
2023/08/18 09:20:36;;;;;;;5.10;3.63;;;34.60;80.80;;;;;;5083091;28;20444;-77
2023/08/18 09:23:05;;;;;;;3.03;2.60;;;34.60;81.30;;;;;;5076694;28;20446;-76
2023/08/18 09:25:35;;;;;;;4.37;3.10;;;34.60;80.20;;;;;;5080342;28;20569;-77
2023/08/18 09:28:32;;;;;;;5.20;3.30;;;34.70;79.90;;;;;;5077771;28;20453;-76
2023/08/18 09:31:08;;;;;;;4.20;2.70;;;34.50;80.30;;;;;;5083320;28;20437;-75
2023/08/18 09:33:35;;;;;;;4.40;4.00;;;35.10;80.30;;;;;;5070304;28;20498;-77
2023/08/18 09:36:19;;;;;;;4.37;3.30;;;35.40;79.20;;;;;;5070234;28;20516;-79
2023/08/18 09:38:48;;;;;;;4.50;3.63;;;35.30;78.70;;;;;;5083518;28;20441;-77
2023/08/18 09:41:16;;;;;;;5.03;2.87;;;35.20;80.10;;;;;;5077337;28;20919;-79
2023/08/18 09:43:43;;;;;;;5.77;2.93;;;35.20;79.90;;;;;;5071975;28;20545;-78
2023/08/18 09:46:16;;;;;;;5.83;3.30;;;35.20;80.50;;;;;;5067318;28;20469;-78
2023/08/18 09:48:46;;;;;;;4.10;3.63;;;34.50;80.60;;;;;;5067032;28;21017;-77
2023/08/18 09:51:13;;;;;;;3.37;3.10;;;34.50;82.20;;;;;;5084855;28;20437;-78
2023/08/18 09:53:49;;;;;;;4.20;3.00;;;34.20;83.50;;;;;;5055449;28;20472;-77
2023/08/18 09:56:22;;;;;;;3.77;3.40;;;34.60;81.80;;;;;;5055166;28;20550;-76
2023/08/18 09:58:54;;;;;;;3.77;3.10;;;34.50;82.00;;;;;;5079129;28;20505;-77
2023/08/18 10:01:24;;;;;;;4.30;3.27;;;34.80;82.00;;;;;;5072225;28;20536;-77
2023/08/18 10:03:51;;;;;;;4.40;4.00;;;34.80;82.60;;;;;;5079078;28;20448;-77
2023/08/18 10:06:19;;;;;;;7.23;4.10;;;34.80;82.40;;;;;;5076716;28;20467;-77
2023/08/18 10:08:47;;;;;;;4.40;3.43;;;34.80;81.10;;;;;;5080433;28;20444;-78
2023/08/18 10:11:14;;;;;;;3.80;3.50;;;34.80;81.70;;;;;;5072235;28;20492;-77
2023/08/18 10:13:42;;;;;;;4.10;3.47;;;34.60;82.20;;;;;;5087640;28;20471;-77
2023/08/18 10:16:10;;;;;;;5.00;3.93;;;34.70;82.40;;;;;;5073382;28;20862;-78
2023/08/18 10:18:38;;;;;;;4.93;4.43;;;34.70;81.70;;;;;;5072345;28;20481;-78
2023/08/18 10:21:05;;;;;;;6.83;4.13;;;34.50;83.00;;;;;;5081323;28;20510;-78
2023/08/18 10:23:33;;;;;;;9.13;4.50;;;34.60;82.70;;;;;;5078709;28;21199;-77
2023/08/18 10:26:03;;;;;;;4.57;4.17;;;34.50;83.40;;;;;;5084921;28;20569;-77
2023/08/18 10:28:32;;;;;;;5.93;4.77;;;34.60;82.60;;;;;;5078042;28;20467;-77
2023/08/18 10:31:05;;;;;;;4.73;4.10;;;34.30;83.50;;;;;;5078557;28;20453;-77
2023/08/18 10:33:35;;;;;;;6.20;4.97;;;34.10;83.70;;;;;;5075342;28;21045;-76
2023/08/18 10:36:04;;;;;;;5.07;4.57;;;33.90;84.50;;;;;;5077136;28;20437;-78
2023/08/18 10:38:35;;;;;;;5.13;4.67;;;33.80;84.40;;;;;;5078054;28;20435;-77
2023/08/18 10:41:03;;;;;;;6.83;4.27;;;33.40;85.60;;;;;;5081276;28;20436;-78
2023/08/18 10:43:47;;;;;;;5.40;4.90;;;32.80;87.20;;;;;;5082848;28;20991;-76
2023/08/18 10:46:14;;;;;;;5.67;5.10;;;32.50;88.40;;;;;;5083972;28;20476;-77
2023/08/18 10:48:41;;;;;;;5.97;4.70;;;32.20;88.70;;;;;;5080460;28;20915;-77
2023/08/18 10:51:09;;;;;;;5.07;4.40;;;32.00;89.50;;;;;;5076688;28;20457;-78
2023/08/18 10:53:40;;;;;;;7.93;4.60;;;31.70;90.40;;;;;;5080942;28;20568;-78
2023/08/18 10:56:07;;;;;;;7.67;4.90;;;31.60;91.20;;;;;;5079554;28;20940;-77
2023/08/18 10:58:35;;;;;;;6.13;5.53;;;31.40;91.40;;;;;;5088545;28;20439;-78
2023/08/18 11:01:03;;;;;;;6.20;5.60;;;31.00;91.40;;;;;;5083709;28;20781;-77
2023/08/18 11:03:31;;;;;;;6.63;5.87;;;30.60;92.40;;;;;;5081881;28;20885;-76
2023/08/18 11:05:59;;;;;;;6.67;6.10;;;30.30;93.20;;;;;;5077559;28;20571;-78
2023/08/18 11:08:28;;;;;;;6.63;5.53;;;30.00;93.10;;;;;;5086046;28;20440;-78
2023/08/18 11:10:54;;;;;;;5.97;5.43;;;29.90;93.80;;;;;;5077237;28;20438;-77
2023/08/18 11:13:23;;;;;;;6.50;5.90;;;30.00;93.70;;;;;;5086279;28;20565;-77
2023/08/18 11:15:51;;;;;;;5.77;5.27;;;30.00;93.40;;;;;;5084149;28;20532;-79
2023/08/18 11:18:18;;;;;;;6.37;5.77;;;30.00;93.90;;;;;;5078456;28;20449;-77
2023/08/18 11:20:45;;;;;;;8.53;7.70;;;30.00;93.90;;;;;;5088333;28;20788;-77
2023/08/18 11:23:12;;;;;;;7.43;6.40;;;29.70;94.00;;;;;;5088162;28;20485;-77
2023/08/18 11:25:40;;;;;;;6.47;5.57;;;29.50;94.70;;;;;;5091363;28;20925;-77
2023/08/18 11:28:08;;;;;;;6.80;5.60;;;29.30;95.00;;;;;;5088160;28;20512;-77
2023/08/18 11:30:35;;;;;;;8.50;7.70;;;29.50;95.10;;;;;;5086558;28;20439;-77
2023/08/18 11:33:02;;;;;;;6.93;6.30;;;29.70;95.40;;;;;;5082256;28;20472;-77
2023/08/18 11:35:31;;;;;;;6.60;5.90;;;29.90;95.20;;;;;;5088612;28;20440;-78
2023/08/18 11:37:58;;;;;;;9.10;5.97;;;30.00;94.70;;;;;;5082151;28;20509;-78
2023/08/18 11:40:25;;;;;;;6.97;6.27;;;29.80;94.80;;;;;;5076441;28;20464;-78
2023/08/18 11:42:54;;;;;;;6.90;6.30;;;29.90;95.00;;;;;;5088249;28;20444;-77
2023/08/18 11:45:23;;;;;;;9.03;7.10;;;29.70;95.00;;;;;;5072226;28;20520;-77
2023/08/18 11:47:59;;;;;;;7.60;6.90;;;29.70;95.20;;;;;;5085634;28;20482;-77
2023/08/18 11:50:37;;;;;;;8.93;7.90;;;29.60;95.30;;;;;;5081806;28;20448;-77
2023/08/18 11:53:06;;;;;;;6.80;5.90;;;29.60;95.40;;;;;;5083344;28;20871;-77
2023/08/18 11:55:34;;;;;;;7.87;6.87;;;29.70;95.90;;;;;;5077989;28;20737;-76
2023/08/18 11:58:08;;;;;;;11.00;7.00;;;29.60;95.70;;;;;;5082840;28;20457;-77
2023/08/18 12:00:37;;;;;;;10.63;7.10;;;29.60;95.90;;;;;;5082837;28;20438;-77
2023/08/18 12:03:05;;;;;;;7.93;7.17;;;29.80;95.90;;;;;;5076670;28;20871;-78
2023/08/18 12:05:32;;;;;;;7.77;7.10;;;29.90;95.70;;;;;;5079100;28;20448;-78
2023/08/18 12:08:01;;;;;;;7.60;6.90;;;29.90;95.70;;;;;;5070107;28;20480;-77
2023/08/18 12:10:28;;;;;;;8.13;7.03;;;29.80;95.70;;;;;;5083766;28;20448;-76
2023/08/18 12:12:56;;;;;;;7.07;6.40;;;29.90;95.90;;;;;;5077316;28;20501;-77
2023/08/18 12:15:26;;;;;;;6.67;6.07;;;29.90;96.00;;;;;;5089389;28;20445;-77
2023/08/18 12:17:55;;;;;;;8.40;7.60;;;30.00;96.00;;;;;;5069192;28;20434;-77
2023/08/18 12:20:23;;;;;;;7.00;6.50;;;30.00;95.70;;;;;;5079493;28;20494;-78
2023/08/18 12:22:51;;;;;;;7.30;6.67;;;30.00;95.80;;;;;;5084933;28;20436;-78
2023/08/18 12:25:19;;;;;;;7.07;6.47;;;30.00;96.20;;;;;;5081531;28;20836;-78
2023/08/18 12:27:47;;;;;;;7.20;6.50;;;29.90;96.30;;;;;;5068858;28;20987;-77
2023/08/18 12:30:15;;;;;;;8.50;7.70;;;29.90;96.50;;;;;;5082625;28;20445;-77
2023/08/18 12:32:46;;;;;;;9.70;8.90;;;29.80;96.20;;;;;;5072484;28;20536;-76
2023/08/18 12:35:13;;;;;;;7.90;7.20;;;29.70;96.40;;;;;;5090452;28;20460;-77
2023/08/18 12:37:40;;;;;;;7.90;7.20;;;29.70;96.80;;;;;;5085536;28;20929;-77
2023/08/18 12:40:10;;;;;;;8.87;7.80;;;29.70;96.90;;;;;;5086363;28;20941;-77
2023/08/18 12:42:37;;;;;;;9.00;8.20;;;29.70;96.90;;;;;;5085601;28;20546;-77
2023/08/18 12:45:05;;;;;;;10.50;8.67;;;29.70;96.90;;;;;;5079931;28;20506;-77
2023/08/18 12:47:34;;;;;;;7.73;7.03;;;29.60;97.20;;;;;;5084371;28;20467;-77
2023/08/18 12:50:03;;;;;;;8.27;7.47;;;29.60;97.10;;;;;;5080395;28;20529;-77
2023/08/18 12:52:30;;;;;;;9.00;8.10;;;29.70;97.20;;;;;;5080958;28;20451;-77